createdAt,value
2022-08-05T00:01:35.677Z,24.31
2022-08-05T00:04:08.316Z,24.29
2022-08-05T00:06:37.993Z,24.27
2022-08-05T00:09:12.690Z,24.24
2022-08-05T00:11:47.394Z,24.26
2022-08-05T00:14:17.431Z,24.28
2022-08-05T00:16:52.856Z,24.29
2022-08-05T00:19:22.554Z,24.27
2022-08-05T00:21:52.128Z,24.27
2022-08-05T00:24:31.116Z,24.26
2022-08-05T00:26:59.653Z,24.25
2022-08-05T00:29:38.166Z,24.26
2022-08-05T00:32:11.008Z,24.25
2022-08-05T00:34:55.706Z,24.23
2022-08-05T00:37:51.343Z,24.20
2022-08-05T00:40:27.316Z,24.15
2022-08-05T00:42:58.470Z,24.13
2022-08-05T00:45:38.867Z,24.11
2022-08-05T00:48:12.490Z,24.06
2022-08-05T00:50:41.379Z,24.04
2022-08-05T00:53:44.962Z,23.97
2022-08-05T00:56:01.965Z,23.96
2022-08-05T00:58:29.974Z,23.92
2022-08-05T01:00:58.115Z,23.91
2022-08-05T01:03:31.114Z,23.90
2022-08-05T01:06:01.637Z,23.87
2022-08-05T01:08:42.775Z,23.84
2022-08-05T01:11:22.222Z,23.81
2022-08-05T01:14:03.918Z,23.89
2022-08-05T01:16:44.124Z,23.82
2022-08-05T01:19:46.238Z,23.81
2022-08-05T01:22:27.929Z,23.75
2022-08-05T01:25:40.935Z,23.73
2022-08-05T01:28:25.719Z,23.65
2022-08-05T01:30:58.306Z,23.67
2022-08-05T01:33:35.515Z,23.71
2022-08-05T01:36:12.914Z,23.74
2022-08-05T01:38:48.295Z,23.74
2022-08-05T01:41:22.533Z,23.72
2022-08-05T01:43:57.629Z,23.75
2022-08-05T01:46:42.624Z,23.82
2022-08-05T01:49:23.675Z,23.79
2022-08-05T01:51:56.509Z,23.77
2022-08-05T01:54:31.732Z,23.82
2022-08-05T01:58:12.356Z,23.87
2022-08-05T01:59:54.217Z,23.89
2022-08-05T02:02:26.304Z,23.95
2022-08-05T02:05:01.761Z,23.96
2022-08-05T02:07:32.511Z,23.98
2022-08-05T02:10:02.288Z,23.99
2022-08-05T02:12:38.476Z,24.00
2022-08-05T02:15:13.902Z,24.01
2022-08-05T02:18:31.686Z,24.01
2022-08-05T02:20:47.366Z,24.02
2022-08-05T02:23:21.715Z,24.04
2022-08-05T02:25:52.270Z,24.05
2022-08-05T02:28:29.003Z,24.04
2022-08-05T02:31:04.316Z,24.02
2022-08-05T02:33:38.905Z,24.03
2022-08-05T02:36:13.590Z,24.02
2022-08-05T02:38:53.089Z,24.03
2022-08-05T02:41:28.691Z,24.04
2022-08-05T02:44:12.238Z,24.04
2022-08-05T02:46:58.554Z,24.04
2022-08-05T02:49:35.778Z,24.04
2022-08-05T02:52:07.575Z,24.04
2022-08-05T02:54:41.328Z,24.04
2022-08-05T02:58:11.823Z,24.03
2022-08-05T03:00:02.447Z,24.02
2022-08-05T03:02:37.822Z,24.04
2022-08-05T03:05:10.172Z,24.05
2022-08-05T03:08:00.736Z,24.05
2022-08-05T03:10:28.980Z,24.02
2022-08-05T03:15:24.758Z,24.03
2022-08-05T03:17:57.703Z,24.03
2022-08-05T03:20:26.458Z,24.02
2022-08-05T03:22:57.605Z,23.96
2022-08-05T03:26:04.039Z,23.89
2022-08-05T03:28:18.455Z,23.98
2022-08-05T03:30:49.358Z,24.03
2022-08-05T03:33:19.659Z,24.03
2022-08-05T03:35:49.927Z,24.03
2022-08-05T03:38:32.759Z,24.01
2022-08-05T03:41:08.490Z,24.01
2022-08-05T03:44:09.948Z,23.98
2022-08-05T03:46:30.010Z,23.96
2022-08-05T03:49:02.367Z,23.97
2022-08-05T03:52:37.529Z,24.00
2022-08-05T03:55:50.797Z,24.01
2022-08-05T03:57:41.306Z,24.03
2022-08-05T04:00:12.577Z,24.04
2022-08-05T04:02:58.154Z,24.04
2022-08-05T04:05:33.553Z,24.03
2022-08-05T04:08:05.667Z,24.04
2022-08-05T04:10:44.931Z,24.05
2022-08-05T04:13:13.375Z,24.05
2022-08-05T04:16:02.889Z,24.04
2022-08-05T04:18:30.516Z,24.05
2022-08-05T04:21:00.300Z,24.06
2022-08-05T04:24:05.906Z,24.08
2022-08-05T04:26:18.954Z,24.04
2022-08-05T04:28:51.916Z,24.03
2022-08-05T04:31:20.679Z,24.03
2022-08-05T04:34:17.927Z,24.04
2022-08-05T04:36:46.590Z,24.04
2022-08-05T04:39:18.990Z,24.04
2022-08-05T04:41:48.110Z,24.06
2022-08-05T04:44:21.525Z,24.10
2022-08-05T04:46:58.581Z,24.09
2022-08-05T04:49:38.767Z,24.09
2022-08-05T04:52:17.324Z,24.08
2022-08-05T04:54:47.167Z,24.09
2022-08-05T04:57:17.853Z,24.08
2022-08-05T04:59:47.964Z,24.09
2022-08-05T05:02:41.346Z,24.08
2022-08-05T05:05:26.464Z,24.08
2022-08-05T05:07:56.589Z,24.08
2022-08-05T05:10:33.367Z,24.11
2022-08-05T05:13:04.070Z,24.17
2022-08-05T05:15:59.096Z,24.15
2022-08-05T05:18:31.123Z,24.14
2022-08-05T05:21:04.062Z,24.14
2022-08-05T05:23:39.439Z,24.17
2022-08-05T05:26:28.699Z,24.18
2022-08-05T05:29:02.272Z,24.31
2022-08-05T05:34:02.153Z,24.23
2022-08-05T05:36:31.789Z,24.19
2022-08-05T05:39:03.560Z,24.21
2022-08-05T05:41:40.390Z,24.23
2022-08-05T05:44:35.793Z,24.28
2022-08-05T05:47:04.096Z,24.29
2022-08-05T05:49:33.627Z,24.33
2022-08-05T05:52:06.057Z,24.39
2022-08-05T05:54:50.112Z,24.39
2022-08-05T05:57:21.088Z,24.41
2022-08-05T05:59:49.515Z,24.43
2022-08-05T06:02:27.946Z,24.45
2022-08-05T06:05:01.321Z,24.49
2022-08-05T06:07:41.819Z,24.51
2022-08-05T06:10:13.468Z,24.55
2022-08-05T06:12:44.047Z,24.61
2022-08-05T06:15:24.139Z,24.66
2022-08-05T06:17:54.478Z,24.68
2022-08-05T06:20:23.284Z,24.73
2022-08-05T06:22:51.626Z,24.75
2022-08-05T06:25:59.409Z,24.77
2022-08-05T06:28:12.552Z,24.80
2022-08-05T06:30:50.812Z,24.79
2022-08-05T06:33:20.316Z,24.78
2022-08-05T06:36:10.060Z,24.72
2022-08-05T06:38:38.904Z,24.68
2022-08-05T06:41:16.854Z,24.64
2022-08-05T06:43:58.405Z,24.62
2022-08-05T06:46:29.859Z,24.65
2022-08-05T06:49:01.124Z,24.68
2022-08-05T06:51:31.436Z,24.69
2022-08-05T06:54:02.060Z,24.69
2022-08-05T06:56:34.897Z,24.73
2022-08-05T06:59:03.763Z,24.79
2022-08-05T07:01:37.497Z,24.86
2022-08-05T07:04:10.040Z,24.94
2022-08-05T07:06:38.386Z,25.02
2022-08-05T07:09:07.025Z,25.15
2022-08-05T07:11:39.794Z,25.29
2022-08-05T07:14:29.269Z,25.44
2022-08-05T07:18:01.692Z,25.61
2022-08-05T07:22:42.563Z,25.98
2022-08-05T07:25:23.909Z,26.18
2022-08-05T07:28:05.939Z,26.23
2022-08-05T07:30:39.908Z,26.37
2022-08-05T07:33:15.555Z,26.47
2022-08-05T07:36:02.115Z,26.48
2022-08-05T07:38:42.870Z,26.54
2022-08-05T07:42:08.760Z,26.64
2022-08-05T07:44:14.323Z,26.82
2022-08-05T07:46:49.793Z,27.26
2022-08-05T07:49:19.420Z,27.79
2022-08-05T07:51:53.674Z,28.29
2022-08-05T07:54:31.169Z,28.53
2022-08-05T07:57:23.666Z,28.48
2022-08-05T07:59:52.532Z,28.42
2022-08-05T08:02:31.358Z,28.32
2022-08-05T08:05:15.605Z,28.13
2022-08-05T08:07:59.508Z,27.98
2022-08-05T08:10:29.009Z,27.85
2022-08-05T08:12:58.879Z,27.73
2022-08-05T08:16:33.317Z,27.58
2022-08-05T08:18:20.777Z,27.51
2022-08-05T08:21:02.802Z,27.46
2022-08-05T08:24:02.683Z,27.37
2022-08-05T08:26:27.038Z,27.40
2022-08-05T08:29:21.960Z,27.46
2022-08-05T08:31:51.064Z,27.54
2022-08-05T08:34:29.908Z,27.50
2022-08-05T08:37:04.723Z,27.43
2022-08-05T08:39:37.780Z,27.39
2022-08-05T08:42:32.561Z,27.54
2022-08-05T08:45:18.936Z,27.73
2022-08-05T08:48:11.316Z,27.67
2022-08-05T08:51:03.525Z,27.68
2022-08-05T08:53:36.983Z,27.71
2022-08-05T08:56:06.749Z,27.89
2022-08-05T08:58:43.155Z,28.21
2022-08-05T09:01:16.501Z,28.54
2022-08-05T09:03:55.596Z,28.85
2022-08-05T09:06:29.550Z,29.22
2022-08-05T09:08:59.748Z,29.54
2022-08-05T09:11:51.090Z,29.82
2022-08-05T09:14:58.932Z,30.02
2022-08-05T09:17:09.329Z,29.92
2022-08-05T09:19:55.185Z,29.48
2022-08-05T09:22:32.095Z,29.08
2022-08-05T09:25:13.862Z,28.85
2022-08-05T09:28:03.758Z,28.65
2022-08-05T09:30:35.598Z,28.64
2022-08-05T09:33:07.557Z,28.65
2022-08-05T09:35:37.629Z,28.65
2022-08-05T09:38:16.648Z,28.60
2022-08-05T09:40:53.633Z,28.64
2022-08-05T09:43:40.449Z,28.65
2022-08-05T09:46:27.673Z,28.64
2022-08-05T09:49:07.532Z,28.71
2022-08-05T09:51:49.475Z,28.82
2022-08-05T09:54:30.531Z,28.83
2022-08-05T09:57:01.451Z,28.72
2022-08-05T09:59:34.998Z,28.62
2022-08-05T10:02:06.693Z,28.48
2022-08-05T10:04:38.262Z,28.42
2022-08-05T10:07:20.213Z,28.38
2022-08-05T10:10:04.422Z,28.17
2022-08-05T10:12:50.038Z,27.93
2022-08-05T10:15:22.190Z,27.85
2022-08-05T10:18:12.377Z,27.86
2022-08-05T10:20:44.061Z,27.99
2022-08-05T10:23:22.112Z,28.04
2022-08-05T10:26:07.812Z,28.00
2022-08-05T10:28:43.887Z,28.05
2022-08-05T10:32:53.760Z,28.20
2022-08-05T10:34:03.488Z,28.40
2022-08-05T10:36:32.306Z,28.35
2022-08-05T10:40:04.337Z,28.46
2022-08-05T10:42:33.934Z,28.39
2022-08-05T10:45:21.302Z,28.25
2022-08-05T10:48:29.127Z,28.21
2022-08-05T10:50:59.652Z,28.31
2022-08-05T10:53:42.713Z,28.68
2022-08-05T10:56:25.245Z,29.11
2022-08-05T11:00:01.076Z,29.52
2022-08-05T11:02:14.649Z,29.98
2022-08-05T11:04:57.598Z,30.08
2022-08-05T11:07:32.920Z,30.27
2022-08-05T11:10:27.753Z,30.49
2022-08-05T11:13:01.283Z,30.48
2022-08-05T11:16:01.048Z,30.44
2022-08-05T11:18:30.120Z,30.57
2022-08-05T11:21:06.224Z,30.95
2022-08-05T11:24:05.470Z,30.99
2022-08-05T11:26:33.990Z,31.00
2022-08-05T11:29:12.729Z,31.21
2022-08-05T11:32:00.381Z,30.82
2022-08-05T11:34:47.447Z,30.76
2022-08-05T11:38:28.674Z,31.01
2022-08-05T11:41:03.494Z,31.08
2022-08-05T11:44:04.530Z,31.21
2022-08-05T11:46:37.582Z,31.57
2022-08-05T11:49:08.109Z,31.80
2022-08-05T11:51:44.207Z,31.81
2022-08-05T11:54:33.419Z,31.76
2022-08-05T11:57:08.196Z,31.82
2022-08-05T11:59:53.209Z,32.15
2022-08-05T12:02:31.899Z,32.04
2022-08-05T12:05:07.996Z,32.16
2022-08-05T12:08:03.361Z,32.46
2022-08-05T12:10:45.519Z,32.48
2022-08-05T12:13:28.161Z,32.63
2022-08-05T12:16:15.098Z,32.49
2022-08-05T12:18:52.280Z,32.57
2022-08-05T12:21:24.205Z,32.68
2022-08-05T12:24:04.333Z,32.91
2022-08-05T12:26:35.105Z,32.67
2022-08-05T12:29:03.856Z,32.62
2022-08-05T12:31:46.193Z,32.63
2022-08-05T12:34:23.594Z,32.92
2022-08-05T12:36:54.485Z,33.18
2022-08-05T12:39:34.558Z,32.54
2022-08-05T12:42:14.908Z,31.99
2022-08-05T12:44:45.937Z,32.00
2022-08-05T12:47:27.432Z,31.97
2022-08-05T12:50:02.037Z,31.71
2022-08-05T12:52:38.782Z,31.79
2022-08-05T12:55:23.298Z,31.10
2022-08-05T12:58:38.804Z,30.47
2022-08-05T13:02:01.452Z,30.55
2022-08-05T13:03:41.587Z,30.39
2022-08-05T13:06:16.928Z,30.13
2022-08-05T13:08:52.073Z,30.17
2022-08-05T13:11:47.073Z,30.38
2022-08-05T13:14:19.462Z,30.62
2022-08-05T13:16:56.689Z,30.68
2022-08-05T13:19:27.065Z,30.92
2022-08-05T13:22:28.249Z,30.87
2022-08-05T13:25:05.539Z,30.79
2022-08-05T13:27:38.509Z,30.62
2022-08-05T13:30:33.561Z,30.57
2022-08-05T13:33:01.155Z,30.77
2022-08-05T13:35:42.490Z,30.69
2022-08-05T13:38:20.552Z,30.53
2022-08-05T13:40:58.830Z,30.38
2022-08-05T13:43:44.467Z,30.34
2022-08-05T13:46:35.814Z,30.35
2022-08-05T13:49:09.819Z,30.34
2022-08-05T13:51:41.117Z,30.34
2022-08-05T13:54:13.229Z,30.30
2022-08-05T13:56:44.909Z,30.32
2022-08-05T13:59:21.104Z,30.38
2022-08-05T14:01:57.425Z,30.21
2022-08-05T14:04:49.738Z,30.21
2022-08-05T14:07:56.240Z,30.21
2022-08-05T14:10:12.003Z,30.09
2022-08-05T14:12:41.234Z,30.04
2022-08-05T14:16:05.954Z,29.94
2022-08-05T14:18:01.515Z,29.72
2022-08-05T14:20:30.814Z,29.42
2022-08-05T14:22:59.589Z,29.12
2022-08-05T14:25:30.263Z,29.09
2022-08-05T14:27:58.847Z,29.33
2022-08-05T14:30:28.332Z,29.66
2022-08-05T14:32:58.887Z,29.73
2022-08-05T14:35:37.201Z,29.54
2022-08-05T14:38:32.146Z,29.26
2022-08-05T14:41:07.491Z,28.64
2022-08-05T14:43:59.416Z,28.29
2022-08-05T14:46:27.979Z,27.97
2022-08-05T14:48:58.718Z,27.98
2022-08-05T14:51:30.890Z,27.95
2022-08-05T14:54:26.819Z,27.84
2022-08-05T14:56:49.430Z,27.88
2022-08-05T14:59:21.259Z,27.91
2022-08-05T15:01:50.120Z,27.76
2022-08-05T15:04:20.670Z,27.64
2022-08-05T15:06:51.371Z,27.51
2022-08-05T15:09:51.330Z,27.31
2022-08-05T15:12:11.771Z,27.15
2022-08-05T15:14:49.655Z,27.27
2022-08-05T15:17:46.954Z,27.51
2022-08-05T15:20:18.423Z,27.81
2022-08-05T15:22:54.206Z,27.96
2022-08-05T15:25:41.344Z,27.97
2022-08-05T15:28:15.579Z,27.96
2022-08-05T15:30:45.581Z,28.05
2022-08-05T15:34:04.448Z,28.05
2022-08-05T15:36:04.148Z,28.15
2022-08-05T15:38:36.653Z,28.09
2022-08-05T15:41:23.209Z,28.01
2022-08-05T15:43:55.271Z,28.05
2022-08-05T15:46:24.751Z,28.06
2022-08-05T15:48:58.568Z,28.12
2022-08-05T15:52:10.070Z,28.23
2022-08-05T15:54:18.756Z,28.24
2022-08-05T15:56:47.528Z,28.20
2022-08-05T15:59:19.890Z,28.19
2022-08-05T16:01:52.363Z,28.12
2022-08-05T16:04:25.151Z,28.14
2022-08-05T16:06:55.777Z,28.10
2022-08-05T16:09:25.004Z,28.12
2022-08-05T16:11:53.843Z,28.08
2022-08-05T16:14:24.110Z,28.16
2022-08-05T16:16:52.502Z,28.08
2022-08-05T16:20:02.793Z,28.05
2022-08-05T16:22:10.517Z,28.05
2022-08-05T16:24:40.962Z,27.88
2022-08-05T16:27:15.982Z,27.73
2022-08-05T16:29:50.804Z,27.76
2022-08-05T16:32:28.296Z,27.72
2022-08-05T16:34:58.728Z,27.57
2022-08-05T16:38:15.462Z,27.37
2022-08-05T16:40:25.145Z,27.17
2022-08-05T16:42:58.411Z,27.11
2022-08-05T16:46:04.728Z,27.15
2022-08-05T16:48:25.344Z,27.24
2022-08-05T16:50:54.602Z,27.12
2022-08-05T16:54:02.082Z,27.16
2022-08-05T16:56:12.583Z,27.20
2022-08-05T16:58:41.998Z,27.11
2022-08-05T17:01:12.107Z,27.07
2022-08-05T17:03:40.593Z,26.94
2022-08-05T17:06:09.358Z,26.84
2022-08-05T17:08:53.095Z,26.67
2022-08-05T17:11:23.404Z,26.63
2022-08-05T17:14:00.363Z,26.68
2022-08-05T17:16:37.220Z,26.61
2022-08-05T17:19:07.445Z,26.64
2022-08-05T17:21:39.658Z,26.73
2022-08-05T17:24:20.496Z,26.83
2022-08-05T17:26:59.251Z,26.85
2022-08-05T17:29:39.899Z,26.77
2022-08-05T17:32:17.233Z,26.55
2022-08-05T17:42:16.737Z,26.21
2022-08-05T17:44:11.201Z,25.99
2022-08-05T17:46:41.395Z,25.84
2022-08-05T17:49:13.086Z,25.74
2022-08-05T17:51:50.010Z,25.64
2022-08-05T17:57:23.368Z,25.49
2022-08-05T18:00:04.936Z,25.44
2022-08-05T18:02:49.197Z,25.35
2022-08-05T18:05:22.206Z,25.24
2022-08-05T18:08:21.549Z,25.20
2022-08-05T18:10:51.626Z,25.05
2022-08-05T18:13:20.980Z,24.88
2022-08-05T18:15:57.350Z,24.76
2022-08-05T18:22:09.221Z,24.62
2022-08-05T18:28:10.739Z,24.39
2022-08-05T18:30:40.204Z,24.30
2022-08-05T18:33:13.690Z,24.26
2022-08-05T18:36:01.269Z,24.19
2022-08-05T18:38:32.351Z,24.14
2022-08-05T18:41:55.680Z,24.11
2022-08-05T18:43:49.290Z,24.02
2022-08-05T18:46:19.854Z,23.96
2022-08-05T18:48:51.859Z,23.92
2022-08-05T18:52:06.034Z,23.84
2022-08-05T18:54:28.545Z,23.73
2022-08-05T18:57:00.959Z,23.64
2022-08-05T18:59:43.267Z,23.53
2022-08-05T19:02:36.588Z,23.45
2022-08-05T19:06:05.343Z,23.41
2022-08-05T19:07:58.245Z,23.41
2022-08-05T19:10:28.723Z,23.37
2022-08-05T19:12:57.010Z,23.34
2022-08-05T19:15:59.761Z,23.28
2022-08-05T19:18:21.871Z,23.20
2022-08-05T19:20:52.512Z,23.15
2022-08-05T19:24:03.940Z,23.10
2022-08-05T19:26:11.932Z,23.06
2022-08-05T19:28:42.088Z,23.02
2022-08-05T19:31:13.685Z,22.97
2022-08-05T19:33:48.238Z,22.90
2022-08-05T19:36:25.546Z,22.82
2022-08-05T19:39:01.945Z,22.73
2022-08-05T19:41:58.556Z,22.63
2022-08-05T19:44:23.462Z,22.52
2022-08-05T19:46:57.919Z,22.43
2022-08-05T19:49:26.096Z,22.40
2022-08-05T19:52:08.778Z,22.40
2022-08-05T19:54:53.123Z,22.37
2022-08-05T19:57:48.930Z,22.32
2022-08-05T20:00:11.943Z,22.27
2022-08-05T20:02:40.396Z,22.28
2022-08-05T20:05:16.627Z,22.33
2022-08-05T20:07:57.713Z,22.29
2022-08-05T20:10:27.671Z,22.25
2022-08-05T20:12:58.453Z,22.20
2022-08-05T20:15:48.211Z,22.16
2022-08-05T20:18:33.858Z,22.08
2022-08-05T20:21:04.492Z,22.02
2022-08-05T20:23:39.181Z,21.96
2022-08-05T20:26:17.968Z,21.90
2022-08-05T20:28:51.414Z,21.81
2022-08-05T20:31:36.818Z,21.75
2022-08-05T20:34:11.736Z,21.68
2022-08-05T20:36:43.006Z,21.64
2022-08-05T20:39:13.259Z,21.61
2022-08-05T20:41:44.526Z,21.55
2022-08-05T20:44:17.050Z,21.47
2022-08-05T20:46:47.803Z,21.42
2022-08-05T20:49:24.196Z,21.34
2022-08-05T20:51:54.397Z,21.25
2022-08-05T20:54:25.582Z,21.20
2022-08-05T20:57:14.451Z,21.14
2022-08-05T21:00:11.203Z,21.08
2022-08-05T21:02:39.255Z,21.01
2022-08-05T21:05:09.261Z,20.93
2022-08-05T21:07:50.673Z,20.87
2022-08-05T21:10:20.883Z,20.77
2022-08-05T21:12:57.585Z,20.70
2022-08-05T21:15:33.731Z,20.62
2022-08-05T21:18:02.232Z,20.57
2022-08-05T21:20:32.627Z,20.51
2022-08-05T21:23:03.136Z,20.45
2022-08-05T21:25:33.790Z,20.42
2022-08-05T21:28:03.646Z,20.40
2022-08-05T21:30:33.118Z,20.37
2022-08-05T21:33:01.862Z,20.36
2022-08-05T21:35:55.540Z,20.34
2022-08-05T21:38:19.186Z,20.34
2022-08-05T21:40:47.321Z,20.28
2022-08-05T21:43:17.740Z,20.22
2022-08-05T21:45:57.653Z,20.15
2022-08-05T21:48:28.770Z,20.09
2022-08-05T21:50:57.222Z,20.04
2022-08-05T21:53:27.381Z,19.98
2022-08-05T21:56:05.277Z,19.92
2022-08-05T21:58:57.293Z,19.87
2022-08-05T22:01:27.958Z,19.82
2022-08-05T22:04:03.725Z,19.75
2022-08-05T22:06:35.373Z,19.72
2022-08-05T22:09:13.762Z,19.68
2022-08-05T22:11:46.845Z,19.65
2022-08-05T22:14:34.613Z,19.60
2022-08-05T22:17:07.418Z,19.55
2022-08-05T22:20:03.397Z,19.51
2022-08-05T22:22:27.933Z,19.43
2022-08-05T22:25:31.105Z,19.37
2022-08-05T22:28:12.057Z,19.25
2022-08-05T22:30:44.042Z,19.23
2022-08-05T22:33:55.907Z,19.18
2022-08-05T22:36:15.636Z,19.16
2022-08-05T22:38:48.703Z,19.17
2022-08-05T22:42:04.422Z,19.15
2022-08-05T22:44:06.707Z,19.16
2022-08-05T22:46:39.562Z,19.15
2022-08-05T22:49:23.440Z,19.14
2022-08-05T22:52:05.558Z,19.09
2022-08-05T22:54:37.444Z,19.08
2022-08-05T22:57:07.490Z,19.06
2022-08-05T22:59:43.941Z,19.03
2022-08-05T23:02:17.350Z,18.98
2022-08-05T23:04:51.405Z,18.95
2022-08-05T23:07:21.826Z,18.93
2022-08-05T23:09:57.759Z,18.92
2022-08-05T23:12:32.974Z,18.88
2022-08-05T23:15:03.183Z,18.86
2022-08-05T23:17:34.723Z,18.86
2022-08-05T23:20:17.883Z,18.83
2022-08-05T23:22:47.536Z,18.79
2022-08-05T23:25:52.670Z,18.76
2022-08-05T23:28:07.161Z,18.68
2022-08-05T23:30:39.614Z,18.67
2022-08-05T23:33:16.360Z,18.66
2022-08-05T23:35:51.848Z,18.64
2022-08-05T23:38:26.768Z,18.61
2022-08-05T23:40:55.324Z,18.58
2022-08-05T23:44:03.665Z,18.56
2022-08-05T23:46:21.353Z,18.48
2022-08-05T23:48:59.846Z,18.44
2022-08-05T23:51:52.390Z,18.36
2022-08-05T23:54:25.949Z,18.30
2022-08-05T23:57:03.293Z,18.29
